Terminal Aerodrome Forecast
Issued by NWS Grand Forks, ND

Home | Current Version | Previous Version | Graphics & Text | Print | Product List | Glossary Off
Versions: 1 2 3 4 5 6 7 8 9 10 11 12 13 14 15 16 17 18 19 20

000
FTUS43 KFGF 251408 AAA
TAFGFK
TAF AMD
KGFK 251408Z 2514/2612 VRB05KT P6SM FEW120
     FM251900 18007KT P6SM FEW100
     FM260300 09004KT P6SM SCT090
     FM261000 VRB03KT P6SM BKN100=

USA.gov is the U.S. government's official web portal to all federal, state and local government web resources and services.